Time;durP1;ratioP1;P1;durP2;ratioP2;P2;SDS_P1;SDS_P2;PMS_P1;PMS_P2;Temp;Humidity;BMP_temperature;BMP_pressure;BME280_temperature;BME280_humidity;BME280_pressure;Samples;Min_cycle;Max_cycle;Signal;HPM_P1;HPM_P2
2023/08/18 00:01:23;;;;;;;84.13;25.97;;;20.70;99.90;;;;;;5059126;28;20470;-87
2023/08/18 00:03:50;;;;;;;85.83;26.93;;;20.70;99.90;;;;;;5041739;28;20168;-87
2023/08/18 00:06:15;;;;;;;85.60;24.40;;;20.70;99.90;;;;;;5046758;28;20260;-87
2023/08/18 00:08:42;;;;;;;85.27;24.20;;;20.70;99.90;;;;;;5062726;28;20434;-87
2023/08/18 00:11:08;;;;;;;86.30;27.30;;;20.70;99.90;;;;;;5044224;28;20609;-87
2023/08/18 00:13:33;;;;;;;85.00;26.17;;;20.70;99.90;;;;;;5063826;28;20417;-87
2023/08/18 00:15:59;;;;;;;84.73;27.73;;;20.70;99.90;;;;;;5043883;28;20435;-87
2023/08/18 00:18:25;;;;;;;84.10;25.40;;;20.70;99.90;;;;;;5062301;28;20172;-87
2023/08/18 00:20:51;;;;;;;86.87;27.00;;;20.60;99.90;;;;;;5062549;28;20182;-87
2023/08/18 00:23:16;;;;;;;86.00;25.33;;;20.60;99.90;;;;;;5044365;28;20556;-87
2023/08/18 00:25:42;;;;;;;88.47;29.30;;;20.60;99.90;;;;;;5062930;28;20185;-87
2023/08/18 00:28:08;;;;;;;88.00;28.27;;;20.50;99.90;;;;;;5044241;28;20195;-87
2023/08/18 00:30:34;;;;;;;88.20;26.80;;;20.50;99.90;;;;;;5043844;28;20278;-87
2023/08/18 00:33:00;;;;;;;89.30;27.67;;;20.50;99.90;;;;;;5042679;28;20454;-87
2023/08/18 00:35:26;;;;;;;88.00;29.57;;;20.40;99.90;;;;;;5061179;28;20173;-86
2023/08/18 00:37:52;;;;;;;85.73;26.97;;;20.40;99.90;;;;;;5041683;28;20501;-86
2023/08/18 00:40:17;;;;;;;88.10;23.27;;;20.50;99.90;;;;;;5060451;28;20208;-86
2023/08/18 00:42:43;;;;;;;85.97;23.57;;;20.40;99.90;;;;;;5062647;28;20188;-86
2023/08/18 00:45:12;;;;;;;85.37;25.07;;;20.50;99.90;;;;;;5061209;28;20423;-86
2023/08/18 00:47:39;;;;;;;83.57;23.27;;;20.50;99.90;;;;;;5062015;28;20590;-87
2023/08/18 00:50:06;;;;;;;86.77;25.27;;;20.50;99.90;;;;;;5044297;28;20783;-87
2023/08/18 00:52:31;;;;;;;86.23;23.73;;;20.50;99.90;;;;;;5043901;28;20404;-86
2023/08/18 00:54:58;;;;;;;85.77;26.50;;;20.40;99.90;;;;;;5042256;28;20787;-87
2023/08/18 00:57:24;;;;;;;86.23;23.90;;;20.40;99.90;;;;;;5060371;28;20167;-86
2023/08/18 00:59:51;;;;;;;86.17;24.63;;;20.40;99.90;;;;;;5060407;28;20933;-87
2023/08/18 01:02:19;;;;;;;86.13;25.77;;;20.40;99.90;;;;;;5129467;22;20592;-84
2023/08/18 01:04:46;;;;;;;87.07;23.57;;;20.40;99.90;;;;;;5059956;28;20401;-83
2023/08/18 01:07:11;;;;;;;87.20;26.30;;;20.40;99.90;;;;;;5061889;28;20423;-82
2023/08/18 01:09:37;;;;;;;87.47;23.87;;;20.30;99.90;;;;;;5061503;28;20419;-83
2023/08/18 01:12:09;;;;;;;88.07;23.63;;;20.30;99.90;;;;;;5061744;28;20169;-83
2023/08/18 01:15:07;;;;;;;86.20;25.30;;;20.30;99.90;;;;;;5044295;28;20168;-83
2023/08/18 01:17:44;;;;;;;87.70;26.77;;;20.20;99.90;;;;;;5060925;28;20375;-84
2023/08/18 01:20:11;;;;;;;87.20;27.07;;;20.20;99.90;;;;;;5061048;28;20774;-83
2023/08/18 01:22:39;;;;;;;87.37;24.40;;;20.20;99.90;;;;;;5043469;28;20448;-83
2023/08/18 01:25:05;;;;;;;87.53;27.57;;;20.10;99.90;;;;;;5042801;28;20404;-83
2023/08/18 01:27:31;;;;;;;86.50;30.20;;;20.10;99.90;;;;;;5042369;28;20407;-83
2023/08/18 01:29:58;;;;;;;90.70;35.60;;;20.00;99.90;;;;;;5061016;28;21021;-83
2023/08/18 01:32:27;;;;;;;87.37;30.73;;;20.10;99.90;;;;;;5060767;28;20454;-85
2023/08/18 01:34:53;;;;;;;90.27;29.13;;;20.10;99.90;;;;;;5060757;28;20495;-85
2023/08/18 01:37:21;;;;;;;86.27;29.70;;;20.10;99.90;;;;;;5061572;28;20768;-86
2023/08/18 01:39:49;;;;;;;85.37;24.30;;;20.10;99.90;;;;;;5061110;28;20453;-85
2023/08/18 01:42:15;;;;;;;86.97;27.43;;;20.10;99.90;;;;;;5060883;28;20442;-85
2023/08/18 01:44:41;;;;;;;85.87;29.80;;;20.10;99.90;;;;;;5060750;28;20401;-85
2023/08/18 01:47:06;;;;;;;87.10;31.47;;;20.00;99.90;;;;;;5043391;28;20416;-85
2023/08/18 01:49:32;;;;;;;88.50;29.83;;;20.00;99.90;;;;;;5060831;28;20211;-85
2023/08/18 01:51:58;;;;;;;87.07;28.80;;;20.00;99.90;;;;;;5061366;28;20173;-85
2023/08/18 01:54:24;;;;;;;87.03;27.50;;;20.00;99.90;;;;;;5061359;28;20184;-85
2023/08/18 01:56:50;;;;;;;86.30;26.47;;;19.90;99.90;;;;;;5043383;28;20646;-85
2023/08/18 01:59:15;;;;;;;87.63;31.97;;;19.90;99.90;;;;;;5063953;28;20427;-85
2023/08/18 02:01:41;;;;;;;91.23;36.97;;;19.80;99.90;;;;;;5046461;28;20168;-85
2023/08/18 02:04:07;;;;;;;92.87;35.23;;;19.80;99.90;;;;;;5065232;28;20180;-84
2023/08/18 02:06:32;;;;;;;93.20;32.10;;;19.80;99.90;;;;;;5046770;28;20178;-85
2023/08/18 02:08:58;;;;;;;98.10;43.70;;;19.90;99.90;;;;;;5065066;28;20236;-84
2023/08/18 02:11:24;;;;;;;90.03;39.37;;;19.90;99.90;;;;;;5064324;28;20165;-85
2023/08/18 02:13:49;;;;;;;93.40;41.27;;;19.90;99.90;;;;;;5064077;28;20587;-85
2023/08/18 02:16:15;;;;;;;90.67;37.83;;;19.80;99.90;;;;;;5047260;28;20545;-85
2023/08/18 02:18:41;;;;;;;89.17;33.90;;;19.80;99.90;;;;;;5047045;28;20204;-85
2023/08/18 02:21:06;;;;;;;90.83;31.37;;;19.80;99.90;;;;;;5065333;28;20197;-85
2023/08/18 02:23:32;;;;;;;88.10;33.23;;;19.80;99.90;;;;;;5064791;28;20244;-85
2023/08/18 02:26:04;;;;;;;88.93;34.20;;;19.80;99.90;;;;;;5064469;28;20220;-85
2023/08/18 02:28:31;;;;;;;91.00;36.27;;;19.80;99.90;;;;;;5064852;28;20165;-84
2023/08/18 02:31:05;;;;;;;92.37;36.47;;;19.70;99.90;;;;;;5047244;28;20539;-85
2023/08/18 02:33:32;;;;;;;92.40;37.47;;;19.70;99.90;;;;;;5064620;28;20399;-85
2023/08/18 02:36:00;;;;;;;94.57;38.57;;;19.70;99.90;;;;;;5065030;28;20925;-85
2023/08/18 02:38:27;;;;;;;90.90;36.00;;;19.70;99.90;;;;;;5064629;28;20462;-85
2023/08/18 02:40:53;;;;;;;88.77;37.87;;;19.70;99.90;;;;;;5065035;28;20427;-85
2023/08/18 02:43:19;;;;;;;90.83;36.30;;;19.70;99.90;;;;;;5064383;28;20444;-85
2023/08/18 02:45:45;;;;;;;90.80;32.60;;;19.70;99.90;;;;;;5065046;28;20410;-85
2023/08/18 02:48:12;;;;;;;89.20;37.67;;;19.70;99.90;;;;;;5065168;28;20399;-84
2023/08/18 02:50:38;;;;;;;92.17;36.27;;;19.70;99.90;;;;;;5046527;28;20196;-85
2023/08/18 02:53:04;;;;;;;96.17;39.10;;;19.60;99.90;;;;;;5064453;28;20403;-85
2023/08/18 02:55:30;;;;;;;96.50;40.87;;;19.60;99.90;;;;;;5064337;28;20483;-84
2023/08/18 02:58:00;;;;;;;93.00;41.10;;;19.50;99.90;;;;;;5064019;28;20173;-84
2023/08/18 03:00:26;;;;;;;89.53;38.87;;;19.60;99.90;;;;;;5046060;28;20441;-85
2023/08/18 03:02:52;;;;;;;92.30;37.10;;;19.60;99.90;;;;;;5064477;28;20458;-85
2023/08/18 03:05:18;;;;;;;94.77;41.27;;;19.50;99.90;;;;;;5063902;28;20429;-85
2023/08/18 03:07:44;;;;;;;97.17;38.30;;;19.60;99.90;;;;;;5063505;28;20408;-85
2023/08/18 03:10:09;;;;;;;95.17;44.03;;;19.60;99.90;;;;;;5064038;28;20190;-85
2023/08/18 03:12:38;;;;;;;93.33;36.23;;;19.60;99.90;;;;;;5063600;28;20170;-85
2023/08/18 03:15:05;;;;;;;97.20;44.20;;;19.60;99.90;;;;;;5064052;28;20581;-85
2023/08/18 03:17:31;;;;;;;95.47;43.07;;;19.50;99.90;;;;;;5063824;28;20403;-85
2023/08/18 03:19:56;;;;;;;102.67;51.13;;;19.50;99.90;;;;;;5063885;28;20446;-85
2023/08/18 03:22:22;;;;;;;100.27;58.27;;;19.50;99.90;;;;;;5062410;28;20181;-84
2023/08/18 03:24:50;;;;;;;105.77;65.37;;;19.50;99.90;;;;;;5063395;28;20192;-84
2023/08/18 03:27:16;;;;;;;98.90;47.83;;;19.50;99.90;;;;;;5045247;28;20174;-84
2023/08/18 03:29:42;;;;;;;112.57;74.97;;;19.50;99.90;;;;;;5063262;28;20419;-84
2023/08/18 03:32:07;;;;;;;122.23;86.27;;;19.50;99.90;;;;;;5062436;28;20172;-84
2023/08/18 03:34:33;;;;;;;119.10;84.17;;;19.50;99.90;;;;;;5063320;28;20223;-84
2023/08/18 03:36:59;;;;;;;126.10;99.23;;;19.50;99.90;;;;;;5045010;28;20201;-85
2023/08/18 03:39:24;;;;;;;139.57;124.27;;;19.50;99.90;;;;;;5062313;28;20427;-85
2023/08/18 03:41:50;;;;;;;150.93;135.67;;;19.50;99.90;;;;;;5062255;28;20551;-85
2023/08/18 03:44:16;;;;;;;164.90;148.70;;;19.50;99.90;;;;;;5044726;28;20176;-84
2023/08/18 03:46:42;;;;;;;173.57;156.87;;;19.40;99.90;;;;;;5062342;28;20166;-85
2023/08/18 03:49:07;;;;;;;164.40;147.03;;;19.40;99.90;;;;;;5062261;28;20256;-84
2023/08/18 03:51:33;;;;;;;175.27;158.13;;;19.40;99.90;;;;;;5062083;28;20429;-85
2023/08/18 03:53:59;;;;;;;154.97;139.47;;;19.50;99.90;;;;;;5062037;28;20176;-85
2023/08/18 03:56:24;;;;;;;160.83;143.87;;;19.40;99.90;;;;;;5044117;28;20172;-85
2023/08/18 03:58:50;;;;;;;181.13;164.17;;;19.50;99.90;;;;;;5061434;28;20167;-83
2023/08/18 04:01:15;;;;;;;161.53;145.67;;;19.50;99.90;;;;;;5061960;28;20161;-84
2023/08/18 04:03:43;;;;;;;171.50;154.83;;;19.40;99.90;;;;;;5061573;28;20603;-85
2023/08/18 04:06:09;;;;;;;166.80;150.47;;;19.40;99.90;;;;;;5061338;28;20165;-85
2023/08/18 04:08:41;;;;;;;163.17;146.63;;;19.40;99.90;;;;;;5061887;28;20414;-85
2023/08/18 04:11:07;;;;;;;159.43;143.43;;;19.40;99.90;;;;;;5061823;28;20442;-84
2023/08/18 04:13:32;;;;;;;152.77;136.87;;;19.40;99.90;;;;;;5061452;28;20407;-84
2023/08/18 04:15:58;;;;;;;161.57;145.57;;;19.30;99.90;;;;;;5061603;28;20176;-85
2023/08/18 04:18:24;;;;;;;156.60;140.70;;;19.40;99.90;;;;;;5060548;28;20173;-85
2023/08/18 04:20:50;;;;;;;154.07;137.07;;;19.40;99.90;;;;;;5060275;28;20200;-84
2023/08/18 04:23:16;;;;;;;146.50;130.97;;;19.40;99.90;;;;;;5061288;28;20447;-85
2023/08/18 04:25:43;;;;;;;155.30;139.57;;;19.40;99.90;;;;;;5061226;28;20185;-84
2023/08/18 04:28:09;;;;;;;154.67;138.73;;;19.40;99.90;;;;;;5061120;28;20922;-85
2023/08/18 04:30:35;;;;;;;139.10;124.20;;;19.50;99.90;;;;;;5060981;28;20415;-85
2023/08/18 04:33:01;;;;;;;140.23;123.70;;;19.50;99.90;;;;;;5043275;28;20227;-85
2023/08/18 04:35:26;;;;;;;143.70;128.17;;;19.50;99.90;;;;;;5060950;28;20412;-84
2023/08/18 04:37:52;;;;;;;136.10;120.50;;;19.40;99.90;;;;;;5060491;28;20167;-85
2023/08/18 04:40:18;;;;;;;153.53;135.93;;;19.40;99.90;;;;;;5061137;28;20185;-85
2023/08/18 04:42:43;;;;;;;135.67;117.47;;;19.40;99.90;;;;;;5042786;28;20197;-84
2023/08/18 04:45:09;;;;;;;137.77;104.60;;;19.50;99.90;;;;;;5042829;28;20173;-85
2023/08/18 04:47:35;;;;;;;137.73;109.73;;;19.50;99.90;;;;;;5061067;28;20222;-84
2023/08/18 04:50:01;;;;;;;129.27;104.30;;;19.50;99.90;;;;;;5060903;28;20423;-85
2023/08/18 04:52:27;;;;;;;131.53;113.63;;;19.50;99.90;;;;;;5060897;28;20173;-85
2023/08/18 04:54:52;;;;;;;134.90;102.07;;;19.50;99.90;;;;;;5061210;28;20405;-85
2023/08/18 04:57:18;;;;;;;131.67;102.67;;;19.50;99.90;;;;;;5060840;28;20170;-85
2023/08/18 04:59:43;;;;;;;136.37;116.87;;;19.50;99.90;;;;;;5043144;28;20204;-85
2023/08/18 05:02:09;;;;;;;132.80;111.90;;;19.50;99.90;;;;;;5061082;28;20201;-85
2023/08/18 05:04:35;;;;;;;134.00;115.27;;;19.40;99.90;;;;;;5061686;28;20153;-85
2023/08/18 05:07:00;;;;;;;131.83;106.27;;;19.50;99.90;;;;;;5061199;28;20183;-85
2023/08/18 05:09:26;;;;;;;124.03;98.77;;;19.60;99.90;;;;;;5060762;28;20209;-85
2023/08/18 05:11:51;;;;;;;121.57;95.73;;;19.60;99.90;;;;;;5061394;28;20173;-84
2023/08/18 05:14:17;;;;;;;125.63;96.83;;;19.60;99.90;;;;;;5061399;28;20247;-85
2023/08/18 05:16:43;;;;;;;124.37;90.03;;;19.60;99.90;;;;;;5061030;28;20198;-85
2023/08/18 05:19:08;;;;;;;119.53;75.23;;;19.60;99.90;;;;;;5061333;28;20199;-83
2023/08/18 05:21:34;;;;;;;117.33;84.63;;;19.60;99.90;;;;;;5060642;28;20164;-84
2023/08/18 05:24:00;;;;;;;122.50;96.03;;;19.60;99.90;;;;;;5060614;28;20628;-84
2023/08/18 05:26:25;;;;;;;126.33;90.33;;;19.60;99.90;;;;;;5061702;28;20423;-84
2023/08/18 05:28:51;;;;;;;117.53;86.03;;;19.70;99.90;;;;;;5061024;28;20262;-84
2023/08/18 05:31:17;;;;;;;123.80;89.67;;;19.60;99.90;;;;;;5063510;28;20163;-85
2023/08/18 05:33:42;;;;;;;120.27;88.83;;;19.70;99.90;;;;;;5046692;28;20174;-85
2023/08/18 05:36:08;;;;;;;124.60;90.60;;;19.70;99.90;;;;;;5065924;28;20200;-85
2023/08/18 05:38:34;;;;;;;122.00;91.87;;;19.70;99.90;;;;;;5047397;28;20168;-85
2023/08/18 05:41:07;;;;;;;118.73;84.40;;;19.70;99.90;;;;;;5065682;28;20186;-86
2023/08/18 05:43:37;;;;;;;117.67;86.30;;;19.80;99.90;;;;;;5065238;28;20201;-85
2023/08/18 05:46:03;;;;;;;112.50;82.17;;;19.80;99.90;;;;;;5065369;28;20396;-85
2023/08/18 05:48:30;;;;;;;120.30;80.80;;;19.90;99.90;;;;;;5066337;28;20401;-86
2023/08/18 05:50:56;;;;;;;119.03;84.73;;;19.90;99.90;;;;;;5065278;28;20429;-86
2023/08/18 05:53:23;;;;;;;121.40;79.47;;;19.90;99.90;;;;;;5047875;28;20411;-86
2023/08/18 05:55:50;;;;;;;115.20;80.50;;;19.90;99.90;;;;;;5066429;28;20531;-85
2023/08/18 05:58:16;;;;;;;120.97;75.30;;;19.90;99.90;;;;;;5049109;28;20491;-86
2023/08/18 06:00:42;;;;;;;116.27;73.53;;;20.00;99.90;;;;;;5065817;28;20427;-86
2023/08/18 06:03:08;;;;;;;115.40;71.10;;;20.00;99.90;;;;;;5048613;28;20504;-86
2023/08/18 06:05:34;;;;;;;111.00;71.80;;;20.10;99.90;;;;;;5048320;28;20411;-85
2023/08/18 06:08:00;;;;;;;109.97;65.57;;;20.10;99.90;;;;;;5049018;28;20187;-86
2023/08/18 06:10:26;;;;;;;114.23;71.20;;;20.10;99.90;;;;;;5065777;28;20426;-86
2023/08/18 06:12:51;;;;;;;117.17;69.37;;;20.10;99.90;;;;;;5066967;28;20174;-86
2023/08/18 06:15:19;;;;;;;117.80;73.00;;;20.10;99.90;;;;;;5066867;28;20173;-86
2023/08/18 06:17:44;;;;;;;114.37;75.47;;;20.10;99.90;;;;;;5066829;28;20177;-86
2023/08/18 06:20:11;;;;;;;112.47;70.53;;;20.00;99.90;;;;;;5066301;28;20424;-86
2023/08/18 06:22:37;;;;;;;115.67;74.27;;;20.10;99.90;;;;;;5066354;28;20455;-86
2023/08/18 06:25:05;;;;;;;120.20;79.13;;;20.00;99.90;;;;;;5066186;28;20399;-86
2023/08/18 06:27:31;;;;;;;117.83;78.20;;;19.90;99.90;;;;;;5065927;28;20397;-86
2023/08/18 06:29:57;;;;;;;114.80;78.80;;;20.00;99.90;;;;;;5063880;28;20976;-86
2023/08/18 06:32:22;;;;;;;114.47;70.60;;;20.10;99.90;;;;;;5065487;28;20539;-85
2023/08/18 06:34:50;;;;;;;112.23;70.90;;;20.00;99.90;;;;;;5065864;28;20168;-86
2023/08/18 06:37:15;;;;;;;114.97;69.10;;;20.10;99.90;;;;;;5065625;28;20172;-86
2023/08/18 06:39:41;;;;;;;118.03;74.53;;;20.10;99.90;;;;;;5066206;28;20507;-86
2023/08/18 06:42:07;;;;;;;116.90;73.03;;;20.20;99.90;;;;;;5066011;28;20198;-86
2023/08/18 06:44:34;;;;;;;116.27;74.33;;;20.20;99.90;;;;;;5067897;28;20232;-86
2023/08/18 06:47:00;;;;;;;121.80;81.60;;;20.10;99.90;;;;;;5052127;28;20214;-86
2023/08/18 06:49:26;;;;;;;120.43;76.60;;;20.20;99.90;;;;;;5070031;28;21008;-85
2023/08/18 06:51:52;;;;;;;114.37;75.53;;;20.20;99.90;;;;;;5070021;28;20460;-85
2023/08/18 06:54:17;;;;;;;109.33;69.90;;;20.20;99.90;;;;;;5068064;28;20168;-86
2023/08/18 06:56:44;;;;;;;118.50;72.37;;;20.40;99.90;;;;;;5070289;28;20164;-86
2023/08/18 06:59:12;;;;;;;123.67;74.70;;;20.30;99.90;;;;;;5069855;28;20193;-87
2023/08/18 07:01:41;;;;;;;115.07;73.20;;;20.40;99.90;;;;;;5049600;28;20428;-87
2023/08/18 07:04:10;;;;;;;116.97;78.50;;;20.50;99.90;;;;;;5101408;22;20489;-86
2023/08/18 07:06:36;;;;;;;114.10;70.83;;;20.50;99.90;;;;;;5055962;28;20409;-85
2023/08/18 07:09:04;;;;;;;111.57;65.20;;;20.70;99.90;;;;;;5055843;28;20416;-85
2023/08/18 07:11:34;;;;;;;118.73;73.73;;;20.80;99.90;;;;;;5037946;28;20410;-88
2023/08/18 07:14:00;;;;;;;118.30;80.47;;;20.90;99.90;;;;;;5055747;28;20467;-87
2023/08/18 07:16:26;;;;;;;120.70;92.27;;;21.10;99.90;;;;;;5055732;28;20474;-88
2023/08/18 07:18:52;;;;;;;118.50;86.43;;;21.10;99.90;;;;;;5055718;28;20662;-88
2023/08/18 07:21:18;;;;;;;121.13;84.30;;;20.90;99.90;;;;;;5055665;28;20165;-88
2023/08/18 07:23:43;;;;;;;131.63;90.93;;;20.80;99.90;;;;;;5055539;28;20563;-88
2023/08/18 07:26:17;;;;;;;126.00;95.00;;;20.90;99.90;;;;;;5055425;28;20407;-88
2023/08/18 07:28:43;;;;;;;129.70;98.67;;;20.80;99.90;;;;;;5055906;28;20613;-88
2023/08/18 07:31:10;;;;;;;128.93;87.00;;;21.00;99.90;;;;;;5038251;28;20446;-88
2023/08/18 07:33:36;;;;;;;135.20;102.67;;;21.10;99.90;;;;;;5037915;28;20172;-87
2023/08/18 07:36:02;;;;;;;134.63;102.00;;;21.00;99.90;;;;;;5056741;28;20406;-88
2023/08/18 07:38:29;;;;;;;144.70;103.93;;;21.00;99.90;;;;;;5040498;28;20820;-88
2023/08/18 07:40:55;;;;;;;145.70;103.53;;;20.90;99.90;;;;;;5055708;28;20430;-88
2023/08/18 07:43:24;;;;;;;148.77;97.67;;;21.10;99.90;;;;;;5037554;28;20443;-88
2023/08/18 07:45:49;;;;;;;147.63;109.07;;;21.10;99.90;;;;;;5037900;28;20200;-88
2023/08/18 07:48:15;;;;;;;144.00;100.40;;;21.20;99.90;;;;;;5055785;28;20455;-88
2023/08/18 07:50:42;;;;;;;146.20;114.23;;;21.10;99.90;;;;;;5055500;28;20185;-88
2023/08/18 07:53:08;;;;;;;134.30;106.80;;;21.30;99.90;;;;;;5037704;28;20176;-88
2023/08/18 07:55:34;;;;;;;129.17;103.37;;;21.40;99.90;;;;;;5036798;28;20483;-88
2023/08/18 07:58:00;;;;;;;118.73;78.63;;;21.70;99.90;;;;;;5055708;28;20445;-88
2023/08/18 08:00:26;;;;;;;119.23;72.43;;;21.90;99.90;;;;;;5040191;28;20435;-86
2023/08/18 08:02:52;;;;;;;105.80;51.37;;;22.00;99.90;;;;;;5027776;28;20204;-85
2023/08/18 08:05:20;;;;;;;111.60;60.17;;;21.80;99.90;;;;;;5040136;28;20438;-86
2023/08/18 08:07:46;;;;;;;116.20;69.20;;;21.70;99.90;;;;;;5058855;28;20414;-86
2023/08/18 08:10:12;;;;;;;110.03;68.80;;;21.60;99.90;;;;;;5039665;28;20438;-86
2023/08/18 08:12:51;;;;;;;116.93;71.07;;;21.70;99.90;;;;;;5040397;28;20403;-86
2023/08/18 08:15:17;;;;;;;107.00;55.10;;;21.60;99.90;;;;;;5039750;28;21035;-85
2023/08/18 08:17:43;;;;;;;111.93;60.50;;;21.70;99.90;;;;;;5039352;28;20423;-85
2023/08/18 08:20:16;;;;;;;111.27;71.53;;;21.80;99.90;;;;;;5055331;28;20270;-86
2023/08/18 08:22:44;;;;;;;100.17;45.90;;;21.90;99.90;;;;;;5037910;28;20455;-86
2023/08/18 08:25:10;;;;;;;100.93;44.17;;;22.00;99.90;;;;;;5061342;28;20376;-85
2023/08/18 08:27:36;;;;;;;104.07;47.43;;;21.90;99.90;;;;;;5061974;28;20427;-85
2023/08/18 08:30:03;;;;;;;97.20;37.00;;;22.00;99.90;;;;;;5062897;28;20446;-85
2023/08/18 08:32:29;;;;;;;106.20;45.83;;;22.00;99.90;;;;;;5061127;28;20399;-85
2023/08/18 08:34:54;;;;;;;102.10;42.97;;;22.00;99.90;;;;;;5045048;28;20465;-85
2023/08/18 08:37:20;;;;;;;100.43;33.47;;;22.20;99.90;;;;;;5044385;28;20302;-85
2023/08/18 08:39:48;;;;;;;100.37;32.60;;;22.20;99.90;;;;;;5062179;28;20192;-86
2023/08/18 08:42:14;;;;;;;101.43;32.73;;;22.10;99.90;;;;;;5061171;28;20699;-85
2023/08/18 08:44:40;;;;;;;104.87;33.87;;;22.10;99.90;;;;;;5061623;28;20483;-85
2023/08/18 08:47:06;;;;;;;103.90;35.43;;;22.30;99.90;;;;;;5043434;28;20671;-85
2023/08/18 08:49:34;;;;;;;106.67;39.10;;;22.50;99.90;;;;;;5063452;28;20427;-86
2023/08/18 08:52:07;;;;;;;111.20;38.87;;;22.40;99.90;;;;;;5062459;28;20185;-86
2023/08/18 08:54:38;;;;;;;105.63;36.20;;;22.50;99.90;;;;;;5063654;28;20384;-86
2023/08/18 08:57:07;;;;;;;108.33;35.73;;;22.60;99.90;;;;;;5063335;28;20454;-86
2023/08/18 08:59:33;;;;;;;115.10;36.23;;;22.70;99.90;;;;;;5062879;28;20431;-86
2023/08/18 09:02:02;;;;;;;105.17;34.07;;;22.80;99.90;;;;;;5062858;28;21035;-86
2023/08/18 09:04:28;;;;;;;99.20;28.60;;;22.90;99.90;;;;;;5062300;28;20513;-86
2023/08/18 09:06:55;;;;;;;95.97;28.37;;;23.00;99.90;;;;;;5063785;28;20407;-87
2023/08/18 09:09:22;;;;;;;102.50;31.10;;;23.10;99.90;;;;;;5044849;28;20435;-86
2023/08/18 09:11:47;;;;;;;103.43;36.33;;;23.00;99.90;;;;;;5045641;28;20787;-86
2023/08/18 09:14:16;;;;;;;105.40;35.77;;;22.90;99.90;;;;;;5062848;28;20399;-85
2023/08/18 09:16:44;;;;;;;102.07;32.20;;;23.00;99.90;;;;;;5062938;28;20188;-85
2023/08/18 09:19:14;;;;;;;103.87;31.10;;;22.90;99.90;;;;;;5062526;28;20775;-84
2023/08/18 09:21:40;;;;;;;103.07;39.53;;;23.10;99.90;;;;;;5055755;28;20392;-85
2023/08/18 09:24:10;;;;;;;103.73;38.17;;;23.30;99.90;;;;;;5037673;28;20866;-85
2023/08/18 09:26:36;;;;;;;101.17;35.93;;;23.20;99.90;;;;;;5055620;28;20439;-85
2023/08/18 09:29:03;;;;;;;105.80;35.87;;;23.40;99.90;;;;;;5055418;28;20423;-85
2023/08/18 09:31:29;;;;;;;102.03;43.20;;;23.40;99.90;;;;;;5059843;28;20164;-86
2023/08/18 09:33:55;;;;;;;104.70;42.40;;;23.40;99.90;;;;;;5060941;28;20427;-85
2023/08/18 09:36:28;;;;;;;103.30;42.73;;;23.40;99.90;;;;;;5044519;28;20422;-85
2023/08/18 09:38:53;;;;;;;102.83;46.53;;;23.40;99.90;;;;;;5044262;28;20171;-85
2023/08/18 09:41:19;;;;;;;115.03;66.37;;;23.50;99.90;;;;;;5043903;28;20431;-85
2023/08/18 09:43:45;;;;;;;102.60;43.17;;;23.30;99.90;;;;;;5061858;28;20238;-84
2023/08/18 09:46:17;;;;;;;106.57;46.07;;;23.30;99.90;;;;;;5062818;28;20403;-83
2023/08/18 09:48:49;;;;;;;95.83;38.73;;;23.50;99.90;;;;;;5059674;28;20236;-83
2023/08/18 09:51:19;;;;;;;97.30;38.50;;;23.50;99.90;;;;;;5042034;28;20825;-84
2023/08/18 09:53:57;;;;;;;97.97;37.43;;;23.50;99.90;;;;;;5058491;28;20402;-84
2023/08/18 09:56:30;;;;;;;90.83;33.87;;;23.60;99.90;;;;;;5041878;28;20399;-83
2023/08/18 09:59:32;;;;;;;90.80;33.27;;;23.80;99.90;;;;;;5059454;28;20411;-83
2023/08/18 10:01:58;;;;;;;93.63;36.17;;;23.90;99.90;;;;;;5041298;28;20403;-83
2023/08/18 10:04:25;;;;;;;92.10;34.87;;;23.90;99.90;;;;;;5058889;28;20441;-81
2023/08/18 10:06:54;;;;;;;92.60;27.83;;;24.10;99.90;;;;;;5058580;28;20395;-81
2023/08/18 10:09:22;;;;;;;90.10;35.10;;;24.40;99.90;;;;;;5059071;28;20540;-81
2023/08/18 10:11:50;;;;;;;86.67;30.63;;;24.40;99.90;;;;;;5040874;28;20400;-82
2023/08/18 10:14:18;;;;;;;88.07;38.50;;;24.60;99.90;;;;;;5041849;28;20761;-81
2023/08/18 10:16:47;;;;;;;90.10;36.77;;;24.90;99.90;;;;;;5059383;28;20827;-81
2023/08/18 10:19:15;;;;;;;90.00;34.33;;;25.00;99.90;;;;;;5042065;28;20424;-83
2023/08/18 10:21:42;;;;;;;84.87;27.63;;;25.20;99.90;;;;;;5065714;28;20440;-83
2023/08/18 10:24:07;;;;;;;85.30;26.17;;;25.40;99.90;;;;;;5065114;28;20399;-81
2023/08/18 10:26:39;;;;;;;86.60;29.17;;;25.50;99.90;;;;;;5045835;28;20397;-81
2023/08/18 10:29:15;;;;;;;81.57;23.30;;;25.50;99.90;;;;;;5045631;28;20563;-81
2023/08/18 10:31:49;;;;;;;83.80;24.33;;;25.70;99.90;;;;;;5043934;28;20413;-81
2023/08/18 10:34:21;;;;;;;87.40;29.40;;;26.00;99.90;;;;;;5062537;28;20378;-81
2023/08/18 10:36:47;;;;;;;90.20;45.20;;;26.30;99.90;;;;;;5045382;28;20410;-82
2023/08/18 10:39:26;;;;;;;89.67;42.63;;;26.50;99.90;;;;;;5063551;28;20782;-84
2023/08/18 10:42:10;;;;;;;94.27;43.83;;;26.60;99.90;;;;;;5062624;28;20198;-83
2023/08/18 10:44:36;;;;;;;96.38;32.10;;;26.30;99.90;;;;;;5044126;28;20416;-82
2023/08/18 10:47:23;;;;;;;106.50;46.53;;;26.30;99.90;;;;;;5062753;28;20165;-82
2023/08/18 10:49:48;;;;;;;110.10;39.90;;;26.70;99.90;;;;;;5045480;28;20196;-83
2023/08/18 10:52:15;;;;;;;91.70;40.03;;;26.80;99.90;;;;;;5045038;28;20407;-84
2023/08/18 10:54:40;;;;;;;91.07;36.00;;;27.10;99.90;;;;;;5044877;28;20176;-82
2023/08/18 10:57:06;;;;;;;92.07;35.40;;;26.80;99.90;;;;;;5044724;28;20414;-82
2023/08/18 10:59:32;;;;;;;88.57;35.40;;;26.70;99.90;;;;;;5062306;28;20193;-83
2023/08/18 11:01:57;;;;;;;102.07;56.43;;;26.90;99.90;;;;;;5063262;28;20201;-83
2023/08/18 11:04:26;;;;;;;84.90;33.10;;;26.90;99.90;;;;;;5044577;28;20184;-83
2023/08/18 11:06:52;;;;;;;80.40;18.47;;;27.10;99.70;;;;;;5045356;28;20196;-83
2023/08/18 11:09:17;;;;;;;82.53;17.53;;;27.00;90.00;;;;;;5063606;28;20419;-82
2023/08/18 11:11:43;;;;;;;83.73;18.47;;;27.20;85.70;;;;;;5062554;28;20160;-83
2023/08/18 11:14:11;;;;;;;79.80;17.73;;;27.40;75.50;;;;;;5063238;28;20168;-83
2023/08/18 11:16:37;;;;;;;82.67;19.30;;;27.40;82.90;;;;;;5062861;28;20161;-83
2023/08/18 11:19:04;;;;;;;79.50;18.50;;;27.50;80.50;;;;;;5063297;28;20494;-82
2023/08/18 11:21:33;;;;;;;83.50;17.43;;;27.70;82.60;;;;;;5063125;28;20464;-83
2023/08/18 11:23:59;;;;;;;79.13;17.30;;;27.70;88.60;;;;;;5045228;28;20590;-83
2023/08/18 11:26:25;;;;;;;85.95;20.73;;;28.00;76.30;;;;;;5062737;28;20411;-83
2023/08/18 11:28:51;;;;;;;79.87;13.17;;;28.00;64.90;;;;;;5063033;28;20157;-83
2023/08/18 11:31:16;;;;;;;84.17;27.63;;;28.00;58.00;;;;;;5062593;28;20574;-83
2023/08/18 11:33:42;;;;;;;79.80;21.30;;;28.20;42.90;;;;;;5062224;28;20188;-83
2023/08/18 11:36:11;;;;;;;80.70;23.50;;;28.20;45.30;;;;;;5063102;28;20731;-83
2023/08/18 11:38:38;;;;;;;78.47;15.93;;;28.20;43.30;;;;;;5062586;28;20406;-82
2023/08/18 11:41:04;;;;;;;78.80;20.33;;;28.30;67.40;;;;;;5061975;28;20407;-83
2023/08/18 11:43:30;;;;;;;79.87;23.17;;;28.30;39.70;;;;;;5062688;28;20500;-83
2023/08/18 11:45:56;;;;;;;80.07;18.03;;;28.20;53.10;;;;;;5062804;28;20236;-84
2023/08/18 11:48:23;;;;;;;80.70;19.70;;;28.40;37.10;;;;;;5062647;28;20450;-84
2023/08/18 11:50:55;;;;;;;80.63;21.27;;;28.40;48.20;;;;;;5062411;28;20254;-84
2023/08/18 11:53:25;;;;;;;79.90;21.10;;;28.50;49.70;;;;;;5062744;28;20396;-84
2023/08/18 11:55:56;;;;;;;77.70;15.23;;;28.60;32.40;;;;;;5061715;28;20404;-84
2023/08/18 11:58:23;;;;;;;80.00;16.37;;;28.70;25.70;;;;;;5062151;28;20402;-84
2023/08/18 12:00:49;;;;;;;79.17;19.27;;;28.60;32.10;;;;;;5062377;28;20423;-84
2023/08/18 12:03:22;;;;;;;84.47;17.03;;;28.40;39.40;;;;;;5062996;28;20794;-83
2023/08/18 12:05:48;;;;;;;78.73;18.23;;;28.50;50.50;;;;;;5062535;28;20180;-83
2023/08/18 12:08:14;;;;;;;79.60;19.03;;;28.90;39.00;;;;;;5045241;28;20407;-84
2023/08/18 12:10:40;;;;;;;78.43;11.67;;;29.00;34.90;;;;;;5062807;28;20415;-84
2023/08/18 12:13:06;;;;;;;77.47;14.53;;;29.20;22.30;;;;;;5062013;28;20168;-85
2023/08/18 12:15:33;;;;;;;77.17;12.17;;;29.30;15.00;;;;;;5061544;28;20411;-84
2023/08/18 12:17:59;;;;;;;76.70;11.07;;;28.90;16.70;;;;;;5061936;28;20165;-84
2023/08/18 12:20:28;;;;;;;75.17;11.50;;;28.80;22.50;;;;;;5043326;28;20441;-84